Time;durP1;ratioP1;P1;durP2;ratioP2;P2;SDS_P1;SDS_P2;PMS_P1;PMS_P2;Temp;Humidity;BMP_temperature;BMP_pressure;BME280_temperature;BME280_humidity;BME280_pressure;Samples;Min_cycle;Max_cycle;Signal;HPM_P1;HPM_P2
2021/09/24 00:00:32;;;;;;;26.42;4.78;;;;;;;12.73;71.32;99804.80;1697587;82;20942;-79
2021/09/24 00:02:58;;;;;;;15.80;2.90;;;;;;;12.72;71.26;99803.95;1694437;82;20931;-79
2021/09/24 00:05:24;;;;;;;21.02;3.22;;;;;;;12.73;71.22;99809.98;1682349;82;20899;-79
2021/09/24 00:07:51;;;;;;;13.88;2.77;;;;;;;12.74;71.14;99794.81;1679683;83;20948;-79
2021/09/24 00:10:19;;;;;;;21.77;3.45;;;;;;;12.74;71.13;99796.11;1684015;82;20918;-79
2021/09/24 00:12:46;;;;;;;17.52;3.27;;;;;;;12.74;71.12;99794.36;1693245;82;20914;-79
2021/09/24 00:15:14;;;;;;;;;;;;;;;12.76;71.07;99796.44;1694336;82;20927;-79
2021/09/24 00:17:44;;;;;;;14.85;2.77;;;;;;;12.76;70.77;99783.92;1694428;82;20115;-80
2021/09/24 00:20:11;;;;;;;19.20;3.35;;;;;;;12.77;70.98;99798.14;1703281;82;20947;-79
2021/09/24 00:22:38;;;;;;;18.87;2.98;;;;;;;12.79;70.93;99816.23;1708596;82;20926;-79
2021/09/24 00:25:06;;;;;;;15.15;3.33;;;;;;;12.78;70.87;99806.31;1679456;82;20942;-79
2021/09/24 00:27:33;;;;;;;23.90;3.50;;;;;;;12.79;70.70;99813.19;1653383;84;20899;-79
2021/09/24 00:29:59;;;;;;;16.70;2.77;;;;;;;12.82;70.83;99822.61;1662614;84;20970;-79
2021/09/24 00:32:26;;;;;;;18.75;3.22;;;;;;;12.83;70.67;99809.58;1654329;84;20930;-79
2021/09/24 00:34:54;;;;;;;16.75;3.67;;;;;;;12.84;70.25;99801.34;1649222;84;20947;-79
2021/09/24 00:37:20;;;;;;;20.27;2.75;;;;;;;12.85;70.52;99806.92;1651926;84;20982;-79
2021/09/24 00:39:46;;;;;;;14.30;2.77;;;;;;;12.85;70.34;99806.47;1653812;84;20942;-79
2021/09/24 00:42:13;;;;;;;13.20;2.87;;;;;;;12.85;70.44;99816.00;1651400;84;20918;-79
2021/09/24 00:44:43;;;;;;;27.05;3.65;;;;;;;12.86;70.43;99811.21;1651659;84;21519;-79
2021/09/24 00:47:09;;;;;;;18.05;3.50;;;;;;;12.87;70.38;99803.82;1652519;85;20981;-79
2021/09/24 00:49:37;;;;;;;12.58;2.52;;;;;;;12.85;70.37;99803.87;1667612;84;25157;-79
2021/09/24 00:52:05;;;;;;;19.17;3.22;;;;;;;12.85;70.28;99810.36;1649104;84;20947;-79
2021/09/24 00:54:31;;;;;;;13.13;3.75;;;;;;;12.86;70.28;99831.97;1654262;84;20973;-79
2021/09/24 00:57:00;;;;;;;15.03;2.83;;;;;;;12.85;70.22;99817.30;1657201;84;21520;-79
2021/09/24 00:59:28;;;;;;;14.28;3.83;;;;;;;12.85;70.23;99818.15;1644467;84;20907;-79
2021/09/24 01:01:55;;;;;;;24.43;4.70;;;;;;;12.86;70.22;99830.67;1659311;84;21462;-80
2021/09/24 01:04:21;;;;;;;27.58;3.77;;;;;;;12.85;70.10;99827.68;1634328;84;207182;-79
2021/09/24 01:06:52;;;;;;;24.47;3.70;;;;;;;12.84;70.12;99833.77;1597564;86;20981;-79
2021/09/24 01:09:19;;;;;;;18.77;3.70;;;;;;;12.84;70.13;99841.10;1605001;86;20905;-79
2021/09/24 01:11:46;;;;;;;17.48;3.35;;;;;;;12.84;70.10;99845.00;1627684;86;24907;-79
2021/09/24 01:14:12;;;;;;;21.05;3.77;;;;;;;12.83;70.03;99834.23;1624705;86;20952;-79
2021/09/24 01:16:39;;;;;;;18.07;3.27;;;;;;;12.83;70.00;99838.12;1623661;86;21602;-79
2021/09/24 01:19:05;;;;;;;18.12;3.50;;;;;;;12.82;70.00;99842.91;1614314;86;21013;-79
2021/09/24 01:21:32;;;;;;;16.27;3.15;;;;;;;12.82;69.97;99839.47;1589579;88;21027;-79
2021/09/24 01:23:59;;;;;;;15.93;3.22;;;;;;;12.81;69.92;99841.67;1594360;88;21607;-79
2021/09/24 01:26:25;;;;;;;13.00;3.30;;;;;;;12.79;69.87;99840.43;1617879;87;21656;-79
2021/09/24 01:28:52;;;;;;;20.25;3.65;;;;;;;12.78;69.80;99842.63;1617679;87;21147;-79
2021/09/24 01:31:21;;;;;;;20.65;4.17;;;;;;;12.77;69.79;99845.28;1603856;87;21067;-79
2021/09/24 01:33:49;;;;;;;13.50;2.77;;;;;;;12.75;69.77;99845.79;1620887;86;21084;-79
2021/09/24 01:36:16;;;;;;;13.45;2.80;;;;;;;12.75;69.82;99845.34;1637017;86;21103;-79
2021/09/24 01:38:42;;;;;;;;;;;;;;;12.74;69.76;99846.23;1635587;86;21026;-79
2021/09/24 01:41:09;;;;;;;13.00;2.65;;;;;;;12.74;69.64;99850.58;1610352;87;20894;-79
2021/09/24 01:43:36;;;;;;;17.70;3.02;;;;;;;12.73;69.72;99856.67;1616474;86;20900;-79
2021/09/24 01:46:05;;;;;;;22.60;3.58;;;;;;;12.72;69.64;99854.53;1592472;88;21005;-79
2021/09/24 01:48:33;;;;;;;16.65;3.10;;;;;;;12.72;69.64;99857.58;1615454;86;20980;-79
2021/09/24 01:50:59;;;;;;;27.25;5.08;;;;;;;12.72;69.64;99854.98;1620650;87;21655;-79
2021/09/24 01:53:25;;;;;;;14.28;2.80;;;;;;;12.70;69.63;99859.38;1616137;86;21058;-79
2021/09/24 01:55:52;;;;;;;14.45;3.55;;;;;;;12.69;69.62;99870.20;1627456;86;22457;-79
2021/09/24 01:58:19;;;;;;;17.20;2.85;;;;;;;12.70;69.60;99864.56;1625712;86;26664;-79
2021/09/24 02:00:45;;;;;;;19.42;3.20;;;;;;;12.68;69.61;99862.48;1619375;86;21088;-79
2021/09/24 02:03:11;;;;;;;15.43;3.30;;;;;;;12.68;69.57;99867.67;1618846;86;21107;-79
2021/09/24 02:05:37;;;;;;;15.88;2.85;;;;;;;12.67;69.57;99868.12;1615404;86;21701;-79
2021/09/24 02:08:04;;;;;;;14.70;2.55;;;;;;;12.64;69.51;99868.68;1603404;86;22126;-79
2021/09/24 02:10:31;;;;;;;;;;;;;;;12.60;69.53;99868.79;1615763;86;21044;-79
2021/09/24 02:12:58;;;;;;;20.75;3.20;;;;;;;12.57;69.46;99850.75;1632095;86;20752;-79
2021/09/24 02:15:25;;;;;;;14.40;3.17;;;;;;;12.54;69.51;99857.34;1626892;86;21140;-79
2021/09/24 02:17:51;;;;;;;;;;;;;;;12.51;69.53;99857.45;1608870;87;21817;-79
2021/09/24 02:20:18;;;;;;;14.73;2.60;;;;;;;12.48;69.48;99864.49;1595475;88;20515;-79
2021/09/24 02:22:44;;;;;;;;;;;;;;;12.45;69.50;99865.93;1510260;86;10000714;-79
2021/09/24 02:25:11;;;;;;;19.57;3.35;;;;;;;12.43;69.47;99867.73;1625834;85;26663;-79
2021/09/24 02:27:37;;;;;;;18.20;4.33;;;;;;;12.40;69.49;99869.98;1633016;86;21447;-79
2021/09/24 02:30:06;;;;;;;19.02;3.08;;;;;;;12.39;69.50;99886.44;1627932;85;21878;-79
2021/09/24 02:32:33;;;;;;;17.12;3.00;;;;;;;12.39;69.46;99885.59;1634408;86;21368;-79
2021/09/24 02:34:59;;;;;;;17.65;2.77;;;;;;;12.38;69.49;99881.30;1634225;86;21543;-79
2021/09/24 02:37:26;;;;;;;24.35;3.10;;;;;;;12.35;69.46;99887.89;1634160;85;21846;-79
2021/09/24 02:39:52;;;;;;;19.95;3.55;;;;;;;12.33;69.47;99903.95;1627649;86;25915;-79
2021/09/24 02:42:19;;;;;;;19.48;3.00;;;;;;;12.30;69.47;99894.98;1616563;86;21385;-79
2021/09/24 02:44:45;;;;;;;12.35;2.95;;;;;;;12.29;69.51;99920.06;1637498;86;20932;-79
2021/09/24 02:47:11;;;;;;;16.17;3.10;;;;;;;12.28;69.56;99904.55;1634815;86;21431;-79
2021/09/24 02:49:39;;;;;;;;;;;;;;;12.28;69.54;99898.92;1626164;85;21313;-79
2021/09/24 02:52:06;;;;;;;19.80;3.27;;;;;;;12.28;69.58;99914.92;1637748;85;20100;-79
2021/09/24 02:54:32;;;;;;;18.45;4.12;;;;;;;12.27;69.58;99917.97;1637318;86;21416;-79
2021/09/24 02:56:59;;;;;;;17.15;3.70;;;;;;;12.28;69.57;99922.25;1629687;86;21604;-79
2021/09/24 02:59:25;;;;;;;20.57;2.95;;;;;;;12.28;69.59;99924.84;1619258;86;21437;-79
2021/09/24 03:01:57;;;;;;;26.20;3.35;;;;;;;12.29;69.62;99933.47;1626751;86;21922;-79
2021/09/24 03:04:23;;;;;;;14.10;3.05;;;;;;;12.29;69.59;99925.69;1623697;86;21482;-79
2021/09/24 03:06:49;;;;;;;11.93;2.90;;;;;;;12.28;69.60;99928.73;1634272;85;21795;-79
2021/09/24 03:09:16;;;;;;;19.02;3.22;;;;;;;12.25;69.60;99928.39;1636607;86;21410;-79
2021/09/24 03:11:43;;;;;;;17.98;3.60;;;;;;;12.22;69.65;99931.53;1643022;86;22898;-79
2021/09/24 03:14:10;;;;;;;15.93;3.20;;;;;;;12.19;69.65;99939.41;1634425;86;20946;-79
2021/09/24 03:16:37;;;;;;;13.60;2.22;;;;;;;12.17;69.74;99944.64;1627162;86;21931;-79
2021/09/24 03:19:04;;;;;;;;;;;;;;;12.16;69.70;99946.84;1601205;86;21373;-79
2021/09/24 03:21:37;;;;;;;17.45;3.00;;;;;;;12.15;69.79;99952.91;1561181;90;20469;-79
2021/09/24 03:24:04;;;;;;;16.15;2.83;;;;;;;12.14;69.73;99955.11;1623634;86;21138;-79
2021/09/24 03:26:32;;;;;;;16.42;3.00;;;;;;;12.12;69.77;99951.72;1635615;86;28894;-79
2021/09/24 03:28:58;;;;;;;9.73;2.47;;;;;;;12.11;69.82;99964.28;1637696;86;20942;-79
2021/09/24 03:31:24;;;;;;;16.07;2.58;;;;;;;12.10;69.78;99955.27;1629652;86;20903;-79
2021/09/24 03:33:51;;;;;;;16.90;2.47;;;;;;;12.08;69.81;99955.31;1614272;86;21508;-79
2021/09/24 03:36:17;;;;;;;15.08;2.92;;;;;;;12.05;69.85;99964.48;1619032;87;21493;-79
2021/09/24 03:38:44;;;;;;;16.77;2.65;;;;;;;12.03;69.87;99962.38;1613241;86;21386;-79
2021/09/24 03:41:10;;;;;;;19.95;3.10;;;;;;;12.01;69.94;99964.18;1629876;86;21804;-79
2021/09/24 03:43:37;;;;;;;13.83;2.60;;;;;;;12.00;69.94;99973.30;1593957;88;20898;-79
2021/09/24 03:46:03;;;;;;;14.65;3.33;;;;;;;11.98;70.06;99972.50;1622575;86;20946;-79
2021/09/24 03:48:30;;;;;;;15.53;3.22;;;;;;;11.96;70.06;99977.73;1628036;86;20892;-79
2021/09/24 03:50:56;;;;;;;17.80;3.30;;;;;;;11.95;70.03;99976.52;1620642;86;20978;-79
2021/09/24 03:53:22;;;;;;;17.62;3.05;;;;;;;11.92;70.07;99964.50;1616483;86;21469;-79
2021/09/24 03:55:52;;;;;;;;;;;;;;;11.88;70.03;99974.11;1627197;86;20959;-79
2021/09/24 03:58:17;;;;;;;22.32;3.17;;;;;;;11.85;70.22;99965.14;1634767;86;20436;-79
2021/09/24 04:00:44;;;;;;;23.57;3.83;;;;;;;11.83;70.10;99975.16;1619177;86;21348;-79
2021/09/24 04:03:10;;;;;;;23.60;3.70;;;;;;;11.79;70.12;99981.33;1619793;86;20939;-80
2021/09/24 04:05:36;;;;;;;21.93;3.67;;;;;;;11.77;70.17;99981.81;1518516;86;5000798;-79
2021/09/24 04:08:04;;;;;;;16.90;3.35;;;;;;;11.73;70.21;99980.19;1587687;88;21490;-79
2021/09/24 04:10:31;;;;;;;22.48;2.87;;;;;;;11.70;70.23;99979.83;1588669;88;21016;-79
2021/09/24 04:12:57;;;;;;;12.80;2.60;;;;;;;11.68;70.27;99985.95;1592521;88;20973;-79
2021/09/24 04:15:24;;;;;;;20.17;3.20;;;;;;;11.66;70.33;99991.17;1586522;88;20950;-79
2021/09/24 04:17:50;;;;;;;14.60;3.40;;;;;;;11.63;70.36;99993.01;1594340;88;21502;-79
2021/09/24 04:20:17;;;;;;;18.90;2.92;;;;;;;11.61;70.39;100002.97;1592272;88;20970;-80
2021/09/24 04:22:43;;;;;;;15.50;2.87;;;;;;;11.60;70.39;100005.60;1599040;88;21014;-80
2021/09/24 04:25:10;;;;;;;17.20;2.58;;;;;;;11.58;70.43;100001.77;1606458;88;21037;-80
2021/09/24 04:27:37;;;;;;;18.00;2.77;;;;;;;11.57;70.50;100005.69;1595046;87;20986;-80
2021/09/24 04:30:07;;;;;;;21.57;3.25;;;;;;;11.55;70.50;100004.89;1614392;87;20958;-80
2021/09/24 04:32:33;;;;;;;14.50;2.65;;;;;;;11.55;70.54;100011.36;1608489;87;20932;-79
2021/09/24 04:35:01;;;;;;;16.10;2.77;;;;;;;11.55;70.57;100013.50;1599665;87;22109;-78
2021/09/24 04:37:28;;;;;;;12.90;2.95;;;;;;;11.56;70.60;100014.36;1611542;87;20966;-78
2021/09/24 04:39:54;;;;;;;15.32;2.98;;;;;;;11.56;70.63;100011.77;1608523;87;20930;-79
2021/09/24 04:42:20;;;;;;;14.15;2.75;;;;;;;11.56;70.68;100024.71;1604031;87;21055;-79
2021/09/24 04:44:48;;;;;;;13.80;2.55;;;;;;;11.57;70.68;100034.17;1605877;88;20993;-79
2021/09/24 04:47:14;;;;;;;12.78;2.75;;;;;;;11.60;70.77;100034.09;1597953;87;21156;-79
2021/09/24 04:49:41;;;;;;;15.15;2.47;;;;;;;11.61;70.79;100038.38;1605402;87;21055;-79
2021/09/24 04:52:07;;;;;;;;;;;;;;;11.64;70.77;100038.73;1599711;87;21089;-79
2021/09/24 04:54:34;;;;;;;17.77;3.33;;;;;;;11.66;70.98;100042.97;1599339;87;20221;-79
2021/09/24 04:57:00;;;;;;;18.87;2.90;;;;;;;11.69;70.88;100044.17;1596501;87;21075;-78
2021/09/24 04:59:27;;;;;;;;;;;;;;;11.72;70.90;100050.56;1609606;87;21184;-78
2021/09/24 05:01:54;;;;;;;17.05;3.50;;;;;;;11.73;71.11;100047.08;1591290;87;20235;-79
2021/09/24 05:04:20;;;;;;;13.38;2.58;;;;;;;11.76;71.02;100045.69;1600946;87;21101;-79
2021/09/24 05:06:46;;;;;;;13.35;2.37;;;;;;;11.78;70.98;100045.23;1600279;87;21097;-79
2021/09/24 05:09:12;;;;;;;21.90;4.08;;;;;;;11.81;70.99;100050.32;1583797;88;21172;-79
2021/09/24 05:11:39;;;;;;;10.18;2.72;;;;;;;11.85;71.02;100047.19;1598280;88;21099;-79
2021/09/24 05:14:06;;;;;;;16.50;3.05;;;;;;;11.88;71.05;100058.31;1610891;87;21601;-79
2021/09/24 05:16:32;;;;;;;9.95;2.35;;;;;;;11.92;71.08;100065.09;1609007;87;21497;-79
2021/09/24 05:18:59;;;;;;;18.62;2.70;;;;;;;11.95;71.09;100071.08;1596059;87;21069;-79
2021/09/24 05:21:25;;;;;;;15.10;3.10;;;;;;;11.97;71.12;100070.55;1611371;88;21113;-79
2021/09/24 05:23:51;;;;;;;15.08;3.12;;;;;;;12.00;71.16;100070.02;1589617;88;21124;-79
2021/09/24 05:26:17;;;;;;;12.45;2.25;;;;;;;12.03;71.22;100075.10;1591171;87;21142;-79
2021/09/24 05:28:44;;;;;;;18.87;2.80;;;;;;;12.05;71.20;100078.95;1568190;89;21112;-79
2021/09/24 05:31:12;;;;;;;11.25;2.12;;;;;;;12.07;71.22;100084.48;1574576;89;21093;-79
2021/09/24 05:33:38;;;;;;;21.62;4.25;;;;;;;12.08;71.27;100078.85;1573034;89;21121;-79
2021/09/24 05:36:04;;;;;;;10.32;2.25;;;;;;;12.10;71.30;100080.50;1565424;89;21197;-79
2021/09/24 05:38:32;;;;;;;10.10;2.67;;;;;;;12.13;71.29;100085.59;1570378;89;21112;-79
2021/09/24 05:40:58;;;;;;;11.63;2.50;;;;;;;12.16;71.36;100095.02;1566544;89;21119;-79
2021/09/24 05:43:24;;;;;;;16.17;3.33;;;;;;;12.17;71.40;100092.38;1577154;89;21087;-79
2021/09/24 05:45:51;;;;;;;18.23;3.00;;;;;;;12.20;71.40;100102.66;1578179;89;21119;-79
2021/09/24 05:48:17;;;;;;;17.60;3.55;;;;;;;12.23;71.43;100106.89;1558138;89;21095;-79
2021/09/24 05:50:43;;;;;;;14.63;2.52;;;;;;;12.25;71.41;100106.40;1567074;89;21564;-79
2021/09/24 05:53:09;;;;;;;13.48;3.15;;;;;;;12.26;71.44;100110.24;1578823;89;21104;-79
2021/09/24 05:55:36;;;;;;;17.60;3.37;;;;;;;12.28;71.48;100113.23;1562957;89;21135;-79
2021/09/24 05:58:03;;;;;;;14.55;2.12;;;;;;;12.31;71.52;100116.58;1572157;89;21160;-78
2021/09/24 06:00:29;;;;;;;18.85;2.98;;;;;;;12.33;71.55;100112.20;1587795;89;21111;-78
2021/09/24 06:02:56;;;;;;;14.43;3.45;;;;;;;12.35;71.56;100106.97;1564224;89;21169;-78
2021/09/24 06:05:22;;;;;;;15.90;3.30;;;;;;;12.38;71.59;100121.98;1570467;89;21131;-78
2021/09/24 06:07:48;;;;;;;11.38;2.02;;;;;;;12.40;71.57;100118.89;1580451;89;21147;-78
2021/09/24 06:10:18;;;;;;;11.73;2.85;;;;;;;12.42;71.67;100118.39;1572570;89;21134;-78
2021/09/24 06:12:47;;;;;;;11.63;2.05;;;;;;;12.46;71.65;100116.11;1546222;91;21003;-78
2021/09/24 06:15:13;;;;;;;14.70;2.77;;;;;;;12.50;71.69;100118.13;1576449;89;21012;-78
2021/09/24 06:17:40;;;;;;;17.80;3.12;;;;;;;12.53;71.70;100118.87;1564600;89;20957;-78
2021/09/24 06:20:07;;;;;;;16.87;2.98;;;;;;;12.56;71.69;100122.66;1582864;89;21187;-78
2021/09/24 06:22:34;;;;;;;16.12;2.98;;;;;;;12.59;71.72;100126.91;1549567;90;21119;-79
2021/09/24 06:25:01;;;;;;;11.08;2.58;;;;;;;12.63;71.75;100132.84;1567162;89;21100;-79
2021/09/24 06:27:27;;;;;;;18.87;2.60;;;;;;;12.66;71.79;100129.70;1580772;87;21116;-79
2021/09/24 06:29:54;;;;;;;13.58;2.85;;;;;;;12.69;71.79;100131.35;1603276;87;21093;-79
2021/09/24 06:32:22;;;;;;;13.10;3.22;;;;;;;12.69;71.79;100133.95;1611203;87;21093;-79
2021/09/24 06:34:49;;;;;;;19.42;3.77;;;;;;;12.70;71.80;100141.68;1601401;87;21085;-79
2021/09/24 06:37:15;;;;;;;;;;;;;;;12.70;71.82;100142.13;1599771;87;21149;-79
2021/09/24 06:39:44;;;;;;;13.08;2.40;;;;;;;12.70;71.90;100142.13;1598408;87;20193;-79
2021/09/24 06:42:12;;;;;;;18.32;2.87;;;;;;;12.70;71.83;100140.83;1592785;87;21148;-79
2021/09/24 06:44:38;;;;;;;11.28;2.52;;;;;;;12.70;71.86;100149.91;1600104;87;21104;-79
2021/09/24 06:47:06;;;;;;;14.73;2.95;;;;;;;12.68;71.87;100158.19;1598115;87;21138;-79
2021/09/24 06:49:34;;;;;;;13.80;3.00;;;;;;;12.67;71.91;100160.38;1604285;87;21085;-79
2021/09/24 06:52:00;;;;;;;13.43;2.42;;;;;;;12.68;71.96;100163.38;1599587;87;21141;-79
2021/09/24 06:54:28;;;;;;;11.75;2.05;;;;;;;12.65;71.91;100169.51;1592133;87;21387;-79
2021/09/24 06:56:55;;;;;;;9.35;2.15;;;;;;;12.66;71.97;100174.25;1599596;88;20983;-79
2021/09/24 06:59:22;;;;;;;9.98;2.17;;;;;;;12.68;72.05;100179.79;1605321;87;20946;-79
2021/09/24 07:01:48;;;;;;;12.30;2.33;;;;;;;12.68;72.02;100180.23;1618258;86;722985;-79
2021/09/24 07:04:15;;;;;;;13.78;2.37;;;;;;;12.70;72.05;100177.15;1633079;86;21125;-79
2021/09/24 07:06:43;;;;;;;9.28;2.12;;;;;;;12.72;72.06;100186.58;1631006;86;21153;-79
2021/09/24 07:09:10;;;;;;;13.10;2.47;;;;;;;12.75;72.04;100186.94;1644146;86;20966;-79
2021/09/24 07:11:36;;;;;;;;;;;;;;;12.75;72.04;100193.42;1644899;86;20926;-79
2021/09/24 07:14:10;;;;;;;13.30;3.02;;;;;;;12.77;72.18;100194.22;1630356;86;20155;-79
2021/09/24 07:16:39;;;;;;;10.23;2.05;;;;;;;12.79;72.09;100193.28;1632318;86;20982;-79
2021/09/24 07:19:07;;;;;;;11.93;2.62;;;;;;;12.83;72.08;100201.81;1630687;86;21002;-79
2021/09/24 07:21:34;;;;;;;14.40;2.30;;;;;;;12.85;72.12;100206.50;1639317;86;20921;-79
2021/09/24 07:24:01;;;;;;;14.47;2.50;;;;;;;12.90;72.16;100209.35;1604163;88;20985;-79
2021/09/24 07:26:28;;;;;;;10.85;2.62;;;;;;;12.96;72.17;100210.91;1575229;89;20986;-79
2021/09/24 07:28:55;;;;;;;11.63;2.30;;;;;;;13.01;72.18;100215.47;1602416;87;20940;-79
2021/09/24 07:31:23;;;;;;;6.62;2.20;;;;;;;13.05;72.18;100216.22;1651843;85;20972;-79
2021/09/24 07:33:50;;;;;;;8.08;1.77;;;;;;;13.10;72.20;100211.28;1637293;84;20958;-79
2021/09/24 07:36:18;;;;;;;8.73;2.22;;;;;;;13.15;72.23;100216.31;1610817;87;20994;-79
2021/09/24 07:38:46;;;;;;;10.93;2.15;;;;;;;13.24;72.28;100219.95;1645744;85;20935;-79
2021/09/24 07:41:14;;;;;;;9.55;2.50;;;;;;;13.34;72.27;100220.03;1625358;86;20985;-79
2021/09/24 07:43:43;;;;;;;8.50;1.90;;;;;;;13.43;72.25;100218.43;1630867;86;20989;-79
2021/09/24 07:46:11;;;;;;;15.88;3.00;;;;;;;13.52;72.25;100221.13;1637141;84;297593;-79
2021/09/24 07:48:42;;;;;;;13.85;2.25;;;;;;;13.62;72.29;100216.02;1668276;84;20943;-79
2021/09/24 07:51:11;;;;;;;11.22;2.22;;;;;;;13.72;72.25;100223.89;1677026;84;20899;-79
2021/09/24 07:53:38;;;;;;;16.50;2.37;;;;;;;13.82;72.25;100221.82;1688912;84;20985;-79
2021/09/24 07:56:06;;;;;;;11.90;2.05;;;;;;;13.90;72.27;100222.39;1681514;84;20970;-79
2021/09/24 07:58:33;;;;;;;10.30;2.30;;;;;;;13.97;72.19;100217.83;1644309;84;20910;-79
2021/09/24 08:00:59;;;;;;;6.80;1.80;;;;;;;13.99;72.13;100230.31;1439268;83;20012799;-79
2021/09/24 08:03:26;;;;;;;12.03;2.90;;;;;;;14.00;72.18;100230.27;1645871;85;20968;-79
2021/09/24 08:05:55;;;;;;;6.00;1.72;;;;;;;14.03;72.17;100235.35;1637383;85;20952;-79
2021/09/24 08:08:22;;;;;;;10.32;1.92;;;;;;;14.18;72.29;100241.27;1661121;85;20994;-79
2021/09/24 08:10:49;;;;;;;8.40;1.80;;;;;;;14.42;72.40;100249.09;1643930;85;21047;-79
2021/09/24 08:13:16;;;;;;;10.72;2.05;;;;;;;14.58;72.22;100238.02;1641491;85;20907;-79
2021/09/24 08:15:43;;;;;;;7.37;1.85;;;;;;;14.65;72.08;100239.09;1653622;85;20966;-79
2021/09/24 08:18:12;;;;;;;10.75;1.70;;;;;;;14.69;72.06;100236.31;1652551;84;20928;-79
2021/09/24 08:20:41;;;;;;;10.23;1.90;;;;;;;14.68;71.98;100254.13;1663905;85;21329;-79
2021/09/24 08:23:07;;;;;;;8.63;2.17;;;;;;;14.68;71.99;100262.39;1657991;85;20884;-79
2021/09/24 08:25:34;;;;;;;7.62;2.12;;;;;;;14.70;72.00;100257.52;1658597;85;20964;-79
2021/09/24 08:28:00;;;;;;;10.32;2.22;;;;;;;14.76;71.97;100262.95;1656322;84;20952;-79
2021/09/24 08:30:28;;;;;;;10.20;2.10;;;;;;;14.83;71.92;100256.14;1662753;84;20964;-79
2021/09/24 08:32:57;;;;;;;6.33;1.80;;;;;;;14.85;71.84;100250.87;1663437;84;21041;-79
2021/09/24 08:35:24;;;;;;;9.63;2.15;;;;;;;14.87;71.63;100265.98;1665980;84;20961;-79
2021/09/24 08:37:51;;;;;;;9.43;1.90;;;;;;;14.82;71.58;100262.71;1671128;84;20934;-79
2021/09/24 08:40:21;;;;;;;12.15;2.20;;;;;;;14.81;71.59;100257.95;1624409;86;20962;-79
2021/09/24 08:42:48;;;;;;;8.80;1.80;;;;;;;14.81;71.55;100261.86;1622260;86;20946;-79
2021/09/24 08:45:23;;;;;;;12.07;2.58;;;;;;;14.82;71.49;100280.93;1612127;86;26365;-79
2021/09/24 08:47:47;;;;;;;11.93;1.77;;;;;;;14.87;71.54;100261.63;1622655;86;21056;-79
2021/09/24 08:50:14;;;;;;;9.75;2.40;;;;;;;14.89;71.35;100257.20;1611921;86;20938;-79
2021/09/24 08:52:42;;;;;;;10.32;2.22;;;;;;;14.97;71.46;100277.73;1624826;86;20961;-79
2021/09/24 08:55:11;;;;;;;14.30;2.98;;;;;;;15.05;71.35;100273.07;1591479;88;20961;-79
2021/09/24 08:57:38;;;;;;;10.18;1.87;;;;;;;15.11;71.12;100281.91;1623099;87;20982;-79
2021/09/24 09:00:06;;;;;;;11.53;2.35;;;;;;;15.10;71.04;100263.29;1586371;88;21069;-79
2021/09/24 09:03:13;;;;;;;9.68;2.17;;;;;;;15.19;71.19;100288.12;1626421;86;20922;-79
2021/09/24 09:05:53;;;;;;;9.03;2.50;;;;;;;15.26;71.06;100284.81;1628750;86;20926;-79
2021/09/24 09:08:23;;;;;;;6.65;1.80;;;;;;;15.30;70.96;100287.23;1629444;87;20942;-79
2021/09/24 09:10:59;;;;;;;8.78;2.17;;;;;;;15.33;70.80;100284.50;1622750;87;20926;-79
2021/09/24 09:13:30;;;;;;;9.35;3.02;;;;;;;15.25;70.78;100307.41;1605614;86;20998;-79
2021/09/24 09:16:06;;;;;;;9.10;2.27;;;;;;;15.17;70.78;100306.86;1628169;86;20953;-79
2021/09/24 09:18:36;;;;;;;6.85;2.27;;;;;;;15.17;70.87;100308.17;1612275;86;20942;-79
2021/09/24 09:21:05;;;;;;;8.33;2.00;;;;;;;15.18;70.92;100310.71;1632972;86;20926;-79
2021/09/24 09:23:35;;;;;;;8.15;2.20;;;;;;;15.24;70.93;100302.66;1642217;86;20954;-79
2021/09/24 09:26:07;;;;;;;10.13;2.22;;;;;;;15.28;70.65;100317.70;1626539;86;20938;-79
2021/09/24 09:28:51;;;;;;;11.40;2.33;;;;;;;15.31;70.84;100298.05;1605543;86;20978;-79
2021/09/24 09:31:32;;;;;;;10.65;1.87;;;;;;;15.36;70.66;100304.38;1574941;89;20948;-79
2021/09/24 09:34:03;;;;;;;7.72;2.05;;;;;;;15.33;70.58;100308.41;1568198;89;21032;-79
2021/09/24 09:36:39;;;;;;;6.42;2.20;;;;;;;15.31;70.46;100320.64;1587232;89;20983;-79
2021/09/24 09:39:15;;;;;;;7.47;1.70;;;;;;;15.27;70.52;100318.61;1567673;90;20945;-79
2021/09/24 09:41:54;;;;;;;9.33;2.00;;;;;;;15.31;70.55;100320.19;1574488;89;20972;-79
2021/09/24 09:44:27;;;;;;;11.80;2.05;;;;;;;15.33;70.42;100307.95;1619726;87;20935;-79
2021/09/24 09:46:57;;;;;;;8.78;1.80;;;;;;;15.33;70.64;100300.13;1614825;87;20975;-79
2021/09/24 09:49:29;;;;;;;10.72;1.98;;;;;;;15.33;70.64;100300.13;1606417;87;21820;-79
2021/09/24 09:52:12;;;;;;;9.63;1.77;;;;;;;15.51;70.30;100320.69;1603828;87;20948;-79
2021/09/24 09:54:38;;;;;;;9.50;1.92;;;;;;;15.57;70.24;100322.23;1612190;87;21014;-79
2021/09/24 09:57:19;;;;;;;7.45;2.05;;;;;;;15.59;70.07;100329.08;1572675;88;20920;-79
2021/09/24 09:59:52;;;;;;;14.95;2.08;;;;;;;15.52;69.94;100326.30;1573198;89;20956;-79
2021/09/24 10:02:32;;;;;;;7.62;1.80;;;;;;;15.53;70.06;100325.38;1540049;91;21004;-80
2021/09/24 10:04:59;;;;;;;11.30;1.75;;;;;;;15.57;69.86;100330.89;1620018;87;20920;-80
2021/09/24 10:07:26;;;;;;;;;;;;;;;15.67;69.93;100320.91;1632674;87;20952;-80
2021/09/24 10:10:09;;;;;;;9.05;2.08;;;;;;;15.74;69.13;100328.86;1623436;86;20133;-80
2021/09/24 10:12:45;;;;;;;6.95;2.02;;;;;;;15.66;69.45;100330.48;1610817;86;20982;-80
2021/09/24 10:15:14;;;;;;;13.05;2.15;;;;;;;15.65;69.51;100332.70;1586896;88;20999;-80
2021/09/24 10:17:42;;;;;;;8.10;1.90;;;;;;;15.66;69.46;100337.00;1564899;89;20976;-80
2021/09/24 10:20:11;;;;;;;8.18;1.75;;;;;;;15.68;69.39;100343.45;1576017;89;20980;-80
2021/09/24 10:22:38;;;;;;;12.55;2.47;;;;;;;15.73;69.42;100337.14;1556807;90;20924;-80
2021/09/24 10:25:06;;;;;;;13.10;2.30;;;;;;;15.76;69.29;100344.84;1569838;88;20991;-80
2021/09/24 10:27:40;;;;;;;12.63;2.22;;;;;;;15.70;68.95;100339.03;1556998;90;20991;-80
2021/09/24 10:30:12;;;;;;;8.28;1.90;;;;;;;15.65;68.99;100341.82;1603607;88;20973;-80
2021/09/24 10:33:01;;;;;;;8.80;1.90;;;;;;;15.59;68.84;100341.26;1596400;88;20937;-80
2021/09/24 10:35:50;;;;;;;9.50;2.00;;;;;;;15.55;68.89;100343.11;1600267;87;20906;-80
2021/09/24 10:38:21;;;;;;;13.48;1.77;;;;;;;15.56;68.89;100347.41;1601593;87;20933;-80
2021/09/24 10:41:09;;;;;;;9.38;2.37;;;;;;;15.60;68.90;100342.47;1606333;87;20975;-80
2021/09/24 10:43:45;;;;;;;7.83;1.80;;;;;;;15.66;68.87;100342.22;1604649;88;20981;-80
2021/09/24 10:46:38;;;;;;;10.10;2.00;;;;;;;15.71;68.73;100346.78;1602664;88;20953;-80
2021/09/24 10:49:19;;;;;;;15.53;2.20;;;;;;;15.78;68.44;100345.63;1602484;87;21675;-80
2021/09/24 10:52:01;;;;;;;9.60;2.10;;;;;;;15.83;68.58;100343.67;1607259;87;20981;-80
2021/09/24 10:54:27;;;;;;;9.68;2.15;;;;;;;15.98;68.54;100345.24;1609702;88;20942;-79
2021/09/24 10:57:06;;;;;;;11.35;2.12;;;;;;;16.05;68.30;100357.96;1609001;88;20937;-79
2021/09/24 10:59:34;;;;;;;11.03;2.47;;;;;;;16.02;68.20;100353.33;1603088;87;20909;-79
2021/09/24 11:02:37;;;;;;;8.08;1.90;;;;;;;15.96;68.11;100351.83;1599808;88;20980;-79
2021/09/24 11:05:05;;;;;;;9.83;2.17;;;;;;;15.92;68.04;100357.23;1591991;88;20952;-79
2021/09/24 11:07:32;;;;;;;14.75;2.65;;;;;;;15.88;68.09;100353.91;1601797;88;20981;-79
2021/09/24 11:09:59;;;;;;;8.88;1.75;;;;;;;15.88;68.04;100359.13;1587929;88;20980;-79
2021/09/24 11:12:26;;;;;;;14.18;2.87;;;;;;;15.91;67.93;100349.02;1593735;87;20893;-79
2021/09/24 11:15:12;;;;;;;8.55;1.95;;;;;;;15.92;67.85;100347.66;1605873;87;20894;-79
2021/09/24 11:17:43;;;;;;;16.77;2.37;;;;;;;15.98;67.80;100346.09;1603074;87;20929;-79
2021/09/24 11:20:35;;;;;;;9.55;2.22;;;;;;;16.05;67.72;100346.68;1586562;88;20973;-79
2021/09/24 11:23:29;;;;;;;11.78;2.20;;;;;;;16.07;67.65;100335.27;1567960;90;21037;-79
2021/09/24 11:26:15;;;;;;;6.78;1.55;;;;;;;16.19;67.61;100334.70;1557011;90;20984;-79
2021/09/24 11:28:43;;;;;;;9.40;1.97;;;;;;;16.33;67.21;100341.94;1576875;90;20984;-79
2021/09/24 11:31:17;;;;;;;11.03;2.90;;;;;;;16.42;67.29;100352.42;1563014;90;21172;-79